Time;durP1;ratioP1;P1;durP2;ratioP2;P2;SDS_P1;SDS_P2;PMS_P1;PMS_P2;Temp;Humidity;BMP_temperature;BMP_pressure;BME280_temperature;BME280_humidity;BME280_pressure;Samples;Min_cycle;Max_cycle;Signal;HPM_P1;HPM_P2
2022/06/07 00:01:54;;;;;;;6.00;5.45;;;18.50;94.40;;;;;;5104887;28;20098;-57
2022/06/07 00:04:39;;;;;;;6.65;5.97;;;18.50;94.80;;;;;;5129533;28;20033;-56
2022/06/07 00:07:26;;;;;;;6.95;5.88;;;18.40;95.20;;;;;;5132709;27;20509;-55
2022/06/07 00:10:10;;;;;;;6.53;5.70;;;18.40;95.30;;;;;;5121655;27;20113;-50
2022/06/07 00:12:55;;;;;;;;;;;18.40;95.70;;;;;;5117670;27;20066;-57
2022/06/07 00:15:42;;;;;;;6.05;5.45;;;18.30;95.30;;;;;;5113257;28;20381;-59
2022/06/07 00:18:26;;;;;;;6.32;5.45;;;18.30;95.60;;;;;;5095222;28;20046;-56
2022/06/07 00:21:11;;;;;;;;;;;18.40;95.50;;;;;;5102788;28;20475;-53
2022/06/07 00:23:57;;;;;;;7.32;5.60;;;18.40;95.60;;;;;;5101363;28;19910;-57
2022/06/07 00:26:42;;;;;;;8.27;5.72;;;18.40;95.50;;;;;;5116847;28;20038;-56
2022/06/07 00:29:27;;;;;;;6.65;5.53;;;18.50;95.50;;;;;;5116957;28;20038;-59
2022/06/07 00:32:13;;;;;;;6.95;5.80;;;18.50;95.60;;;;;;5115386;28;20513;-55
2022/06/07 00:34:58;;;;;;;6.65;5.25;;;18.60;95.60;;;;;;5122199;27;20039;-58
2022/06/07 00:37:42;;;;;;;7.30;6.60;;;18.60;95.40;;;;;;5115721;28;20518;-58
2022/06/07 00:40:27;;;;;;;11.13;9.95;;;18.60;95.40;;;;;;5099865;28;20047;-55
2022/06/07 00:43:11;;;;;;;13.68;12.23;;;18.60;95.60;;;;;;5085064;27;20033;-55
2022/06/07 00:45:56;;;;;;;14.65;11.98;;;18.60;95.80;;;;;;5098826;27;20086;-54
2022/06/07 00:48:41;;;;;;;9.48;8.07;;;18.70;95.90;;;;;;5080530;28;20067;-53
2022/06/07 00:51:25;;;;;;;;;;;18.70;95.90;;;;;;5080609;28;20039;-54
2022/06/07 00:54:10;;;;;;;7.15;6.45;;;18.70;95.90;;;;;;5096129;28;20029;-54
2022/06/07 00:56:55;;;;;;;;;;;18.70;95.90;;;;;;5080728;28;20031;-55
2022/06/07 00:59:40;;;;;;;7.80;6.97;;;18.60;95.90;;;;;;5102045;28;20045;-55
2022/06/07 01:02:24;;;;;;;7.30;6.55;;;18.60;96.20;;;;;;5114747;28;20035;-55
2022/06/07 01:05:08;;;;;;;12.68;11.07;;;18.50;96.50;;;;;;5114747;28;20140;-57
2022/06/07 01:10:56;;;;;;;10.13;7.20;;;18.50;96.60;;;;;;5116492;28;20041;-53
2022/06/07 01:13:40;;;;;;;;;;;18.40;96.60;;;;;;5116609;28;20505;-57
2022/06/07 01:16:25;;;;;;;6.68;5.88;;;18.30;96.70;;;;;;5081017;28;19914;-59
2022/06/07 01:19:10;;;;;;;6.63;5.93;;;18.30;96.90;;;;;;5094645;28;20437;-58
2022/06/07 01:21:54;;;;;;;;;;;18.30;96.90;;;;;;5095910;28;20079;-57
2022/06/07 01:24:39;;;;;;;7.15;5.55;;;18.10;97.10;;;;;;5096118;28;19955;-56
2022/06/07 01:27:24;;;;;;;6.45;5.32;;;18.10;97.20;;;;;;5079406;28;20039;-54
2022/06/07 01:30:08;;;;;;;5.63;5.03;;;18.10;97.20;;;;;;5095092;28;20542;-58
2022/06/07 01:32:53;;;;;;;6.72;5.28;;;17.90;97.60;;;;;;5118422;27;20078;-55
2022/06/07 01:35:37;;;;;;;;;;;17.80;97.60;;;;;;5104997;28;20031;-59
2022/06/07 01:38:21;;;;;;;7.05;6.25;;;17.90;98.00;;;;;;5094906;28;20106;-57
2022/06/07 01:44:11;;;;;;;7.70;6.18;;;17.70;98.40;;;;;;5094913;28;20044;-57
2022/06/07 01:46:58;;;;;;;6.88;5.78;;;17.20;99.70;;;;;;5090017;28;20043;-59
2022/06/07 01:49:42;;;;;;;6.25;5.60;;;17.20;99.90;;;;;;5114383;28;20097;-60
2022/06/07 01:52:29;;;;;;;6.40;5.78;;;17.30;99.90;;;;;;5094629;28;20027;-59
2022/06/07 01:55:13;;;;;;;11.98;7.45;;;17.40;99.90;;;;;;5104599;28;20074;-56
2022/06/07 01:57:57;;;;;;;8.93;6.85;;;17.40;99.90;;;;;;5115129;28;20035;-57
2022/06/07 02:00:41;;;;;;;11.75;6.60;;;17.40;99.90;;;;;;5107123;28;20542;-55
2022/06/07 02:03:26;;;;;;;7.80;6.97;;;17.40;99.90;;;;;;5099218;28;20038;-55
2022/06/07 02:06:12;;;;;;;8.13;5.82;;;17.40;99.90;;;;;;5096688;28;20094;-56
2022/06/07 02:08:57;;;;;;;6.88;6.15;;;17.50;99.90;;;;;;5093909;28;20170;-55
2022/06/07 02:11:41;;;;;;;6.50;5.07;;;17.70;99.90;;;;;;5093722;28;20034;-56
2022/06/07 02:14:26;;;;;;;;;;;17.70;99.90;;;;;;5095062;28;20051;-54
2022/06/07 02:17:10;;;;;;;8.37;7.47;;;17.70;99.80;;;;;;5097859;28;19915;-55
2022/06/07 02:19:56;;;;;;;11.73;8.68;;;17.70;99.60;;;;;;5098292;28;20176;-59
2022/06/07 02:22:40;;;;;;;8.60;6.30;;;17.70;99.50;;;;;;5114282;28;20137;-54
2022/06/07 02:25:25;;;;;;;6.05;5.45;;;17.60;99.40;;;;;;5105104;28;20027;-56
2022/06/07 02:28:12;;;;;;;5.88;5.28;;;17.40;99.70;;;;;;5092888;28;20153;-55
2022/06/07 02:30:58;;;;;;;7.70;5.35;;;17.40;99.90;;;;;;5096327;27;20768;-55
2022/06/07 02:33:43;;;;;;;6.50;5.25;;;17.30;99.90;;;;;;5123411;27;20038;-54
2022/06/07 02:36:30;;;;;;;6.72;5.10;;;17.30;99.90;;;;;;5114435;28;20178;-54
2022/06/07 02:39:15;;;;;;;8.00;5.85;;;17.30;99.70;;;;;;5113025;28;20030;-54
2022/06/07 02:42:01;;;;;;;7.28;5.38;;;17.10;99.90;;;;;;5113538;28;20054;-54
2022/06/07 02:44:46;;;;;;;5.65;5.15;;;17.00;99.90;;;;;;5110751;28;20628;-53
2022/06/07 02:47:30;;;;;;;6.88;6.13;;;17.00;99.90;;;;;;5112851;28;20035;-54
2022/06/07 02:50:15;;;;;;;9.30;6.88;;;17.00;99.90;;;;;;5113789;28;20074;-58
2022/06/07 02:53:00;;;;;;;;;;;17.00;99.90;;;;;;5112729;28;20046;-56
2022/06/07 02:55:44;;;;;;;8.20;7.10;;;17.00;99.90;;;;;;5093923;28;19950;-55
2022/06/07 02:58:28;;;;;;;7.03;6.30;;;17.10;99.90;;;;;;5092526;28;20205;-56
2022/06/07 03:01:12;;;;;;;7.38;6.35;;;17.20;99.90;;;;;;5097320;28;20414;-54
2022/06/07 03:03:59;;;;;;;6.47;5.88;;;17.30;99.90;;;;;;5113478;28;20042;-58
2022/06/07 03:06:44;;;;;;;6.80;6.10;;;17.40;99.60;;;;;;5104863;28;20051;-57
2022/06/07 03:09:28;;;;;;;7.63;6.40;;;17.30;99.70;;;;;;5063240;28;20391;-55
2022/06/07 03:12:12;;;;;;;7.00;6.30;;;17.30;99.90;;;;;;5093983;28;20422;-55
2022/06/07 03:14:57;;;;;;;7.72;6.35;;;17.40;99.90;;;;;;5093668;28;20093;-56
2022/06/07 03:17:42;;;;;;;8.90;5.97;;;17.50;99.90;;;;;;5078046;28;20066;-58
2022/06/07 03:20:26;;;;;;;6.90;6.20;;;17.60;99.90;;;;;;5092851;28;20039;-53
2022/06/07 03:23:10;;;;;;;7.95;6.45;;;17.70;99.70;;;;;;5093106;28;20060;-55
2022/06/07 03:26:10;;;;;;;7.47;6.47;;;17.70;99.50;;;;;;5093028;28;20031;-54
2022/06/07 03:28:54;;;;;;;6.50;5.55;;;17.80;99.30;;;;;;5092853;28;20090;-59
2022/06/07 03:31:38;;;;;;;5.88;5.20;;;17.70;99.20;;;;;;5114532;28;20035;-58
2022/06/07 03:34:22;;;;;;;6.72;6.03;;;17.70;99.40;;;;;;5118580;28;20066;-59
2022/06/07 03:37:07;;;;;;;7.50;6.38;;;17.70;99.50;;;;;;5112089;28;20035;-58
2022/06/07 03:39:51;;;;;;;7.88;6.30;;;17.70;99.50;;;;;;5098685;28;20174;-54
2022/06/07 03:42:35;;;;;;;6.00;5.28;;;17.70;99.40;;;;;;5117811;27;20069;-54
2022/06/07 03:45:20;;;;;;;6.18;5.47;;;17.70;99.30;;;;;;5097563;28;20047;-54
2022/06/07 03:48:04;;;;;;;6.60;5.47;;;17.70;99.30;;;;;;5081368;28;20489;-52
2022/06/07 03:50:49;;;;;;;10.13;5.60;;;17.80;99.20;;;;;;5096474;28;20075;-58
2022/06/07 03:53:33;;;;;;;5.88;4.90;;;17.90;98.40;;;;;;5100817;28;20026;-56
2022/06/07 03:56:18;;;;;;;5.72;4.93;;;17.80;98.50;;;;;;5086942;28;20090;-56
2022/06/07 03:59:03;;;;;;;7.07;5.00;;;17.70;98.80;;;;;;5107912;28;20104;-57
2022/06/07 04:01:50;;;;;;;;;;;17.70;99.10;;;;;;5097131;28;20039;-53
2022/06/07 04:04:36;;;;;;;6.50;5.13;;;17.70;99.60;;;;;;5096371;28;20004;-56
2022/06/07 04:10:23;;;;;;;7.50;6.40;;;17.60;99.90;;;;;;5114524;28;20461;-55
2022/06/07 04:13:07;;;;;;;7.78;6.03;;;17.60;99.90;;;;;;5116501;28;20039;-59
2022/06/07 04:15:52;;;;;;;6.60;5.90;;;17.60;99.90;;;;;;5096172;28;20047;-53
2022/06/07 04:18:36;;;;;;;8.07;5.70;;;17.70;99.90;;;;;;5097052;28;20035;-55
2022/06/07 04:21:22;;;;;;;6.60;5.25;;;17.80;99.90;;;;;;5096209;28;20038;-55
2022/06/07 04:24:07;;;;;;;5.50;4.90;;;17.80;99.70;;;;;;5081589;28;20047;-54
2022/06/07 04:26:51;;;;;;;7.80;5.40;;;17.90;99.50;;;;;;5096316;28;20083;-54
2022/06/07 04:29:36;;;;;;;8.10;5.28;;;18.00;99.40;;;;;;5096025;28;20035;-59
2022/06/07 04:32:20;;;;;;;6.25;4.93;;;18.10;99.10;;;;;;5115716;28;20042;-57
2022/06/07 04:35:05;;;;;;;5.93;4.85;;;18.10;98.90;;;;;;5116246;28;20062;-54
2022/06/07 04:37:50;;;;;;;5.60;4.88;;;18.10;99.00;;;;;;5116587;28;20062;-58
2022/06/07 04:40:35;;;;;;;5.10;4.60;;;18.00;99.30;;;;;;5096322;28;20042;-58
2022/06/07 04:43:19;;;;;;;8.80;4.90;;;17.90;99.30;;;;;;5096871;28;20046;-50
2022/06/07 04:46:07;;;;;;;4.95;4.45;;;17.80;99.50;;;;;;5082015;28;20089;-54
2022/06/07 04:48:52;;;;;;;5.50;5.00;;;17.90;99.60;;;;;;5104309;27;20038;-52
2022/06/07 04:51:38;;;;;;;6.13;5.07;;;17.90;99.40;;;;;;5136942;27;20497;-57
2022/06/07 04:54:22;;;;;;;9.95;5.57;;;17.90;99.40;;;;;;5110194;28;20098;-57
2022/06/07 04:57:06;;;;;;;6.28;4.95;;;17.90;99.50;;;;;;5117433;28;20101;-54
2022/06/07 04:59:50;;;;;;;5.05;4.53;;;17.80;99.70;;;;;;5102430;28;20043;-54
2022/06/07 05:02:38;;;;;;;;;;;17.80;98.70;;;;;;5080813;28;20398;-56
2022/06/07 05:05:22;;;;;;;8.30;4.90;;;17.80;98.60;;;;;;5102511;27;19962;-51
2022/06/07 05:08:06;;;;;;;6.47;5.00;;;17.90;98.50;;;;;;5120697;27;20061;-50
2022/06/07 05:10:50;;;;;;;6.05;4.60;;;17.90;98.60;;;;;;5133051;27;20042;-54
2022/06/07 05:13:34;;;;;;;6.35;5.13;;;18.00;98.50;;;;;;5116011;28;20062;-56
2022/06/07 05:16:19;;;;;;;12.43;5.28;;;18.00;98.30;;;;;;5109105;28;20095;-56
2022/06/07 05:19:03;;;;;;;8.00;5.47;;;18.10;97.80;;;;;;5094423;28;20051;-55
2022/06/07 05:21:47;;;;;;;5.40;4.80;;;18.00;98.10;;;;;;5095673;28;20043;-56
2022/06/07 05:24:32;;;;;;;;;;;17.90;98.50;;;;;;5106945;28;20085;-53
2022/06/07 05:27:20;;;;;;;7.68;5.00;;;17.90;98.80;;;;;;5105713;27;20194;-59
2022/06/07 05:30:05;;;;;;;8.75;5.60;;;17.80;98.60;;;;;;5094943;28;20059;-56
2022/06/07 05:32:50;;;;;;;8.73;5.53;;;17.70;99.40;;;;;;5101073;28;20097;-54
2022/06/07 05:35:34;;;;;;;7.70;5.95;;;17.60;99.20;;;;;;5115474;28;20038;-56
2022/06/07 05:38:18;;;;;;;9.70;6.35;;;17.40;99.90;;;;;;5094799;28;20106;-56
2022/06/07 05:41:03;;;;;;;6.43;5.82;;;17.40;99.90;;;;;;5096731;28;20135;-55
2022/06/07 05:43:48;;;;;;;7.25;5.00;;;17.40;99.60;;;;;;5099954;28;20066;-56
2022/06/07 05:46:32;;;;;;;7.30;5.22;;;17.50;99.30;;;;;;5109743;28;20043;-56
2022/06/07 05:49:23;;;;;;;6.90;5.05;;;17.60;99.10;;;;;;5091912;27;20034;-58
2022/06/07 05:52:08;;;;;;;6.85;5.18;;;17.60;98.20;;;;;;5096964;28;20034;-58
2022/06/07 05:54:53;;;;;;;18.27;5.80;;;17.70;98.30;;;;;;5115067;28;20406;-56
2022/06/07 05:57:37;;;;;;;6.88;4.40;;;17.90;97.90;;;;;;5098945;28;20089;-53
2022/06/07 06:00:24;;;;;;;8.75;6.45;;;18.00;97.60;;;;;;5110969;28;20043;-53
2022/06/07 06:03:10;;;;;;;9.80;5.63;;;18.00;97.40;;;;;;5094790;28;20047;-57
2022/06/07 06:05:54;;;;;;;13.43;5.35;;;18.00;97.50;;;;;;5101211;28;20103;-57
2022/06/07 06:11:42;;;;;;;8.52;6.63;;;18.40;97.10;;;;;;5099833;28;20078;-57
2022/06/07 06:14:27;;;;;;;5.65;4.72;;;18.70;96.90;;;;;;5110912;28;20055;-57
2022/06/07 06:17:11;;;;;;;8.10;4.57;;;18.80;96.70;;;;;;5093289;28;20396;-54
2022/06/07 06:19:55;;;;;;;4.28;3.88;;;19.00;96.40;;;;;;5078439;28;20039;-59
2022/06/07 06:22:39;;;;;;;4.57;4.18;;;19.20;96.00;;;;;;5093634;28;20401;-52
2022/06/07 06:25:24;;;;;;;;;;;19.30;96.20;;;;;;5102732;28;20085;-55
2022/06/07 06:28:08;;;;;;;4.68;3.90;;;19.40;95.20;;;;;;5093443;28;19955;-57
2022/06/07 06:30:52;;;;;;;7.15;3.95;;;19.40;94.00;;;;;;5082195;28;20039;-56
2022/06/07 06:33:40;;;;;;;6.22;4.43;;;19.30;94.30;;;;;;5112817;28;20413;-54
2022/06/07 06:36:29;;;;;;;7.07;4.05;;;19.20;94.50;;;;;;5096571;27;20042;-56
2022/06/07 06:39:13;;;;;;;5.57;3.75;;;19.30;94.30;;;;;;5101339;28;20026;-51
2022/06/07 06:42:00;;;;;;;5.13;4.07;;;19.20;94.10;;;;;;5092618;28;20047;-55
2022/06/07 06:44:44;;;;;;;4.93;4.20;;;19.40;94.10;;;;;;5095190;28;20093;-57
2022/06/07 06:47:28;;;;;;;5.18;4.65;;;19.60;93.90;;;;;;5104324;28;20463;-54
2022/06/07 06:50:13;;;;;;;9.00;4.50;;;19.70;94.00;;;;;;5120781;27;20348;-52
2022/06/07 06:52:57;;;;;;;6.82;4.70;;;19.90;94.00;;;;;;5112309;28;20496;-57
2022/06/07 06:55:43;;;;;;;10.30;4.43;;;19.90;94.20;;;;;;5093922;28;20039;-52
2022/06/07 06:58:28;;;;;;;4.88;4.10;;;20.00;94.30;;;;;;5112128;28;20049;-58
2022/06/07 07:01:31;;;;;;;5.40;4.50;;;20.00;94.10;;;;;;5087450;28;20035;-56
2022/06/07 07:04:18;;;;;;;11.13;4.53;;;20.20;94.00;;;;;;5111134;28;20058;-56
2022/06/07 07:07:02;;;;;;;7.15;4.30;;;20.10;94.30;;;;;;5109671;28;20082;-54
2022/06/07 07:09:49;;;;;;;9.20;4.50;;;19.90;94.70;;;;;;5098516;28;20122;-53
2022/06/07 07:12:35;;;;;;;5.55;3.83;;;20.10;93.50;;;;;;5103102;28;20427;-57
2022/06/07 07:15:19;;;;;;;6.65;3.78;;;20.10;92.70;;;;;;5094518;28;20046;-59
2022/06/07 07:18:03;;;;;;;8.82;3.45;;;20.20;92.40;;;;;;5096301;28;20040;-59
2022/06/07 07:20:48;;;;;;;7.13;4.35;;;20.30;92.30;;;;;;5097208;28;20046;-57
2022/06/07 07:23:33;;;;;;;5.55;3.72;;;20.30;92.20;;;;;;5093422;28;20056;-57
2022/06/07 07:26:21;;;;;;;6.95;3.28;;;20.30;92.00;;;;;;5096441;28;20089;-60
2022/06/07 07:29:08;;;;;;;5.60;4.00;;;20.40;92.10;;;;;;5096274;28;20074;-59
2022/06/07 07:31:53;;;;;;;5.97;3.58;;;20.40;92.00;;;;;;5087418;28;20090;-57
2022/06/07 07:34:37;;;;;;;;;;;20.50;91.60;;;;;;5112051;28;20431;-57
2022/06/07 07:37:22;;;;;;;6.85;3.22;;;20.60;91.00;;;;;;5099490;28;20374;-58
2022/06/07 07:40:14;;;;;;;6.47;3.50;;;20.60;90.30;;;;;;5092541;28;20038;-59
2022/06/07 07:42:59;;;;;;;5.97;3.22;;;20.70;90.10;;;;;;5091932;28;20206;-60
2022/06/07 07:45:55;;;;;;;5.82;3.20;;;20.70;89.70;;;;;;5100202;28;20022;-59
2022/06/07 07:48:40;;;;;;;17.23;4.25;;;20.60;89.70;;;;;;5095013;28;20398;-58
2022/06/07 07:51:25;;;;;;;;;;;20.70;87.80;;;;;;5095869;28;20507;-60
2022/06/07 07:54:12;;;;;;;5.32;3.47;;;20.80;89.00;;;;;;5078721;28;19911;-59
2022/06/07 07:56:57;;;;;;;4.60;3.03;;;21.00;88.10;;;;;;5094099;28;20105;-59
2022/06/07 07:59:41;;;;;;;5.40;3.00;;;21.10;86.30;;;;;;5094052;28;20094;-59
2022/06/07 08:02:25;;;;;;;7.15;3.70;;;21.00;85.40;;;;;;5094643;28;20093;-58
2022/06/07 08:05:10;;;;;;;;;;;21.10;85.90;;;;;;5078853;28;20039;-59
2022/06/07 08:07:55;;;;;;;8.20;3.33;;;21.20;86.70;;;;;;5094971;28;19911;-61
2022/06/07 08:10:40;;;;;;;3.65;3.00;;;21.30;86.80;;;;;;5078546;28;20059;-54
2022/06/07 08:13:24;;;;;;;3.95;3.10;;;21.30;86.40;;;;;;5093960;28;20039;-59
2022/06/07 08:16:10;;;;;;;4.88;3.00;;;21.20;86.30;;;;;;5092134;28;20561;-59
2022/06/07 08:18:54;;;;;;;4.97;3.13;;;21.20;86.40;;;;;;5092022;28;20461;-59
2022/06/07 08:21:40;;;;;;;4.35;2.53;;;20.90;86.10;;;;;;5077190;28;20534;-59
2022/06/07 08:24:25;;;;;;;3.17;2.85;;;21.00;84.40;;;;;;5092270;28;20035;-58
2022/06/07 08:27:09;;;;;;;4.57;3.25;;;21.00;84.70;;;;;;5091790;28;20036;-59
2022/06/07 08:29:53;;;;;;;5.13;3.67;;;21.30;84.20;;;;;;5094176;28;20043;-60
2022/06/07 08:32:38;;;;;;;4.20;3.20;;;20.90;85.90;;;;;;5127823;27;20077;-59
2022/06/07 08:38:25;;;;;;;5.40;3.17;;;20.50;87.30;;;;;;5122948;27;20046;-59
2022/06/07 08:41:23;;;;;;;4.22;3.00;;;20.20;87.80;;;;;;5120331;27;20054;-59
2022/06/07 08:44:15;;;;;;;4.40;2.85;;;20.20;86.50;;;;;;5117646;27;20037;-58
2022/06/07 08:47:04;;;;;;;6.30;2.75;;;20.10;87.20;;;;;;5114080;28;20074;-56
2022/06/07 08:49:48;;;;;;;4.28;2.88;;;20.20;86.60;;;;;;5114891;28;20506;-59
2022/06/07 08:52:36;;;;;;;;;;;20.30;86.70;;;;;;5116476;28;20062;-59
2022/06/07 08:55:30;;;;;;;6.28;2.85;;;20.60;86.10;;;;;;5115913;28;19915;-58
2022/06/07 08:58:33;;;;;;;5.50;2.72;;;20.50;87.00;;;;;;5115973;28;20089;-62
2022/06/07 09:01:23;;;;;;;8.00;2.80;;;20.80;86.30;;;;;;5115519;28;20115;-59
2022/06/07 09:04:22;;;;;;;12.50;3.72;;;20.80;85.30;;;;;;5115802;28;20027;-58
2022/06/07 09:07:21;;;;;;;12.98;3.83;;;20.90;85.10;;;;;;5100761;28;20030;-57
2022/06/07 09:13:23;;;;;;;6.07;3.47;;;20.80;82.80;;;;;;5114581;28;20564;-58
2022/06/07 09:16:11;;;;;;;6.88;3.25;;;20.90;83.40;;;;;;5115577;28;20034;-59
2022/06/07 09:18:56;;;;;;;7.65;3.28;;;21.20;82.90;;;;;;5118475;28;20521;-57
2022/06/07 09:21:43;;;;;;;6.57;2.83;;;21.60;82.00;;;;;;5116855;28;20086;-57
2022/06/07 09:24:39;;;;;;;6.07;2.95;;;21.40;79.60;;;;;;5118866;28;20038;-57
2022/06/07 09:27:27;;;;;;;6.28;2.30;;;21.50;79.00;;;;;;5118871;28;20034;-58
2022/06/07 09:30:31;;;;;;;2.75;2.10;;;21.40;76.90;;;;;;5118079;28;20039;-62
2022/06/07 09:33:27;;;;;;;5.23;2.40;;;21.30;77.50;;;;;;5108733;28;20054;-59
2022/06/07 09:36:28;;;;;;;4.35;2.88;;;21.30;77.30;;;;;;5108166;28;20127;-61
2022/06/07 09:39:24;;;;;;;7.82;2.75;;;21.30;79.40;;;;;;5089788;28;20054;-59
2022/06/07 09:42:35;;;;;;;4.30;2.50;;;21.40;79.40;;;;;;5098386;27;20031;-58
2022/06/07 09:45:37;;;;;;;5.57;2.72;;;21.60;78.90;;;;;;5082943;28;20081;-61
2022/06/07 09:48:28;;;;;;;7.22;2.60;;;21.90;78.20;;;;;;5115032;28;20399;-61
2022/06/07 09:51:18;;;;;;;5.45;2.80;;;22.10;78.60;;;;;;5099266;28;20049;-56
2022/06/07 09:54:16;;;;;;;24.02;5.78;;;21.90;77.50;;;;;;5112513;28;20047;-60
2022/06/07 09:57:23;;;;;;;5.03;2.85;;;21.60;79.20;;;;;;5114027;28;20391;-59
2022/06/07 10:00:11;;;;;;;6.47;2.70;;;21.70;79.00;;;;;;5114481;27;20540;-61
2022/06/07 10:03:10;;;;;;;10.00;3.15;;;21.90;78.00;;;;;;5114551;28;20034;-60
2022/06/07 10:06:27;;;;;;;7.78;2.50;;;21.70;78.20;;;;;;5115182;28;20062;-59
2022/06/07 10:09:22;;;;;;;4.10;2.40;;;21.60;77.60;;;;;;5114722;28;20027;-58
2022/06/07 10:12:34;;;;;;;7.68;3.40;;;21.70;78.50;;;;;;5113932;28;20407;-59
2022/06/07 10:15:30;;;;;;;4.07;2.42;;;22.10;77.70;;;;;;5114318;28;20213;-58
2022/06/07 10:18:19;;;;;;;4.10;2.50;;;22.10;77.40;;;;;;5114132;28;20055;-56
2022/06/07 10:21:33;;;;;;;4.28;2.60;;;21.80;77.80;;;;;;5114195;28;20031;-59
2022/06/07 10:24:26;;;;;;;5.25;2.55;;;21.50;78.40;;;;;;5113354;28;20161;-58
2022/06/07 10:27:32;;;;;;;3.78;2.50;;;21.30;78.00;;;;;;5098979;28;20058;-57
2022/06/07 10:30:34;;;;;;;3.80;2.58;;;21.20;78.10;;;;;;5099625;28;20444;-59
2022/06/07 10:33:50;;;;;;;4.07;2.17;;;21.10;78.00;;;;;;5106241;28;20362;-62
2022/06/07 10:36:45;;;;;;;;;;;21.10;78.00;;;;;;5114236;28;20029;-60
2022/06/07 10:40:04;;;;;;;3.08;2.47;;;21.20;77.70;;;;;;5113435;28;19929;-59
2022/06/07 10:42:56;;;;;;;3.58;2.30;;;21.20;77.90;;;;;;5031155;28;20035;-58
2022/06/07 10:45:43;;;;;;;5.35;2.70;;;21.20;78.20;;;;;;5077068;28;20394;-60
2022/06/07 10:48:42;;;;;;;7.88;3.10;;;21.10;77.20;;;;;;5078117;28;20046;-60
2022/06/07 10:54:56;;;;;;;6.78;2.60;;;21.50;77.70;;;;;;5093798;28;20078;-60
2022/06/07 10:57:52;;;;;;;5.05;2.50;;;21.70;76.80;;;;;;5092687;28;20027;-58
2022/06/07 11:00:50;;;;;;;7.35;2.42;;;21.80;77.10;;;;;;5092442;28;20525;-61
2022/06/07 11:04:09;;;;;;;4.28;2.72;;;21.90;77.80;;;;;;5078351;28;20082;-56
2022/06/07 11:10:01;;;;;;;3.03;2.20;;;22.20;75.70;;;;;;5092880;28;20047;-59
2022/06/07 11:12:54;;;;;;;4.45;2.38;;;22.30;75.60;;;;;;5093953;28;20457;-60
2022/06/07 11:16:15;;;;;;;6.18;2.70;;;22.70;75.80;;;;;;5093568;28;20059;-57
2022/06/07 11:19:04;;;;;;;34.17;5.50;;;22.50;71.50;;;;;;5092996;28;20455;-58
2022/06/07 11:21:55;;;;;;;8.68;3.03;;;22.40;71.00;;;;;;5078597;28;20054;-54
2022/06/07 11:24:59;;;;;;;8.30;2.58;;;22.20;69.30;;;;;;5093062;28;20391;-58
2022/06/07 11:27:57;;;;;;;6.45;2.50;;;21.90;69.60;;;;;;5078779;28;20031;-60
2022/06/07 11:30:45;;;;;;;4.15;2.42;;;22.00;71.40;;;;;;5100016;28;20441;-58
2022/06/07 11:33:38;;;;;;;3.17;2.30;;;22.20;71.60;;;;;;5108341;28;20037;-59
2022/06/07 11:36:30;;;;;;;2.20;1.90;;;22.40;71.30;;;;;;5113470;28;20445;-60
2022/06/07 11:39:38;;;;;;;3.28;2.10;;;22.30;69.90;;;;;;5098581;28;20502;-59
2022/06/07 11:42:33;;;;;;;9.13;2.22;;;22.20;70.30;;;;;;5113286;28;20088;-58
2022/06/07 11:45:22;;;;;;;2.83;1.98;;;22.10;69.70;;;;;;5113401;28;20026;-59
2022/06/07 11:48:16;;;;;;;6.13;2.53;;;22.20;69.80;;;;;;5113759;28;20070;-58
2022/06/07 11:51:17;;;;;;;3.00;2.17;;;22.30;70.70;;;;;;5112778;28;20474;-59
2022/06/07 11:54:04;;;;;;;3.13;2.10;;;22.40;70.70;;;;;;5111589;28;20391;-55
2022/06/07 11:56:50;;;;;;;3.92;2.10;;;22.50;70.20;;;;;;5113098;28;20031;-59
2022/06/07 11:59:44;;;;;;;5.15;2.22;;;22.50;68.90;;;;;;5112942;28;20093;-59
2022/06/07 12:02:36;;;;;;;5.53;2.33;;;22.40;68.90;;;;;;5111549;28;20106;-59
2022/06/07 12:05:30;;;;;;;3.50;2.17;;;22.20;69.70;;;;;;5116226;28;20107;-58
2022/06/07 12:08:51;;;;;;;4.75;2.50;;;22.40;68.90;;;;;;5117571;28;20023;-57
2022/06/07 12:11:42;;;;;;;5.70;2.55;;;22.70;68.40;;;;;;5076616;28;20038;-59
2022/06/07 12:14:37;;;;;;;4.75;2.50;;;22.90;69.10;;;;;;5111218;28;20509;-58
2022/06/07 12:17:26;;;;;;;4.07;2.58;;;22.70;69.20;;;;;;5116389;28;20038;-59
2022/06/07 12:20:28;;;;;;;5.47;2.45;;;22.80;69.70;;;;;;5117275;28;20517;-56
2022/06/07 12:23:29;;;;;;;3.67;2.30;;;23.20;70.20;;;;;;5119314;28;20034;-57
2022/06/07 12:26:34;;;;;;;3.17;2.30;;;23.20;70.80;;;;;;5118366;28;20035;-59
2022/06/07 12:29:21;;;;;;;6.10;2.30;;;23.20;70.50;;;;;;5116825;28;20027;-59
2022/06/07 12:32:06;;;;;;;5.45;2.63;;;22.90;69.70;;;;;;5127515;27;20573;-59
2022/06/07 12:35:11;;;;;;;5.55;2.38;;;23.20;70.30;;;;;;5137512;27;20049;-60
2022/06/07 12:37:59;;;;;;;3.35;2.53;;;23.40;69.50;;;;;;5136982;27;20030;-59
2022/06/07 12:40:50;;;;;;;6.50;2.60;;;23.40;69.60;;;;;;5136766;27;20437;-59
2022/06/07 12:43:44;;;;;;;4.63;2.60;;;23.60;69.80;;;;;;5124176;27;20026;-59
2022/06/07 12:46:40;;;;;;;4.07;2.20;;;23.50;70.10;;;;;;5116088;28;20023;-59
2022/06/07 12:49:29;;;;;;;4.35;2.58;;;23.40;69.80;;;;;;5115049;28;20030;-59
2022/06/07 12:52:17;;;;;;;2.60;2.33;;;23.20;69.10;;;;;;5111523;28;20034;-58
2022/06/07 12:55:13;;;;;;;2.78;2.30;;;23.30;69.80;;;;;;5078786;28;20395;-59
2022/06/07 12:58:02;;;;;;;4.22;2.40;;;23.30;70.30;;;;;;5115073;28;20552;-58
2022/06/07 13:00:47;;;;;;;4.47;2.30;;;23.20;70.20;;;;;;5115447;28;20221;-59
2022/06/07 13:03:37;;;;;;;9.95;2.30;;;23.20;70.10;;;;;;5110759;28;20030;-59
2022/06/07 13:06:22;;;;;;;3.80;2.30;;;23.40;70.30;;;;;;5107669;28;20027;-57
2022/06/07 13:09:20;;;;;;;4.78;2.15;;;23.30;70.60;;;;;;5115258;28;20513;-59
2022/06/07 13:12:06;;;;;;;6.47;2.40;;;23.20;70.80;;;;;;5115316;28;20058;-59
2022/06/07 13:14:52;;;;;;;3.85;2.40;;;23.40;70.60;;;;;;5113810;28;20078;-60
2022/06/07 13:17:40;;;;;;;11.60;2.72;;;23.60;70.60;;;;;;5114942;28;20042;-59
2022/06/07 13:21:02;;;;;;;5.40;2.70;;;24.00;69.70;;;;;;5114148;28;20050;-57
2022/06/07 13:23:54;;;;;;;2.65;2.13;;;24.40;65.00;;;;;;5099660;28;20031;-59
2022/06/07 13:26:47;;;;;;;6.60;2.42;;;24.30;61.20;;;;;;5116055;28;20069;-57
2022/06/07 13:29:36;;;;;;;4.57;2.22;;;24.10;62.40;;;;;;5099944;28;20115;-60
2022/06/07 13:32:26;;;;;;;3.20;2.10;;;24.20;62.10;;;;;;5115044;28;20038;-58
2022/06/07 13:35:24;;;;;;;3.17;2.25;;;24.20;62.30;;;;;;5113811;28;20029;-58
2022/06/07 13:38:23;;;;;;;4.43;2.03;;;24.20;62.10;;;;;;5114578;28;20034;-59
2022/06/07 13:41:11;;;;;;;2.92;1.90;;;24.30;62.80;;;;;;5113311;28;20341;-58
2022/06/07 13:44:10;;;;;;;5.97;1.90;;;24.50;64.00;;;;;;5114359;28;20031;-59
2022/06/07 13:47:04;;;;;;;2.83;2.08;;;24.80;63.40;;;;;;5113828;28;20073;-60
2022/06/07 13:53:25;;;;;;;2.50;2.00;;;24.90;62.70;;;;;;5114058;28;20491;-61
2022/06/07 13:56:14;;;;;;;2.35;1.95;;;25.30;62.10;;;;;;5113847;28;20540;-58
2022/06/07 13:58:59;;;;;;;4.43;2.20;;;25.30;61.40;;;;;;5098273;28;20403;-58
2022/06/07 14:01:47;;;;;;;4.25;2.03;;;25.10;61.90;;;;;;5084107;28;20030;-58
2022/06/07 14:04:32;;;;;;;2.63;1.90;;;25.20;60.50;;;;;;5114353;28;20106;-56
2022/06/07 14:07:16;;;;;;;3.60;2.10;;;25.20;60.70;;;;;;5085093;28;20030;-59
2022/06/07 14:10:01;;;;;;;3.67;2.17;;;25.30;60.40;;;;;;5114414;28;20078;-59
2022/06/07 14:12:46;;;;;;;4.75;2.47;;;25.10;61.10;;;;;;5114033;28;20074;-58
2022/06/07 14:15:32;;;;;;;2.28;1.90;;;24.80;60.80;;;;;;5114090;28;20124;-61
2022/06/07 14:18:19;;;;;;;2.60;2.03;;;24.80;61.60;;;;;;5114139;28;20038;-58
2022/06/07 14:21:04;;;;;;;11.98;3.17;;;25.10;60.50;;;;;;5113608;28;20104;-58
2022/06/07 14:23:48;;;;;;;4.43;2.05;;;25.00;61.20;;;;;;5097741;28;20031;-60
2022/06/07 14:26:32;;;;;;;6.78;1.88;;;24.80;60.80;;;;;;5113359;28;20410;-58
2022/06/07 14:29:18;;;;;;;4.82;1.98;;;24.60;60.70;;;;;;5113759;28;20062;-62
2022/06/07 14:32:02;;;;;;;7.85;3.03;;;24.30;61.50;;;;;;5112728;28;20043;-61
2022/06/07 14:34:47;;;;;;;7.55;2.08;;;24.70;61.50;;;;;;5113227;28;20315;-59
2022/06/07 14:37:31;;;;;;;2.13;1.80;;;25.30;60.80;;;;;;5113073;28;20173;-62
2022/06/07 14:40:19;;;;;;;6.75;2.45;;;26.10;60.10;;;;;;5113755;28;20035;-59
2022/06/07 14:43:05;;;;;;;5.88;2.20;;;26.20;59.30;;;;;;5113214;28;20092;-60
2022/06/07 14:46:18;;;;;;;3.13;2.10;;;26.00;59.40;;;;;;5113439;28;20088;-59
2022/06/07 14:49:20;;;;;;;3.67;2.22;;;24.80;60.00;;;;;;5113506;28;20055;-61
2022/06/07 14:52:07;;;;;;;5.50;2.10;;;24.80;61.50;;;;;;5098115;28;20390;-59
2022/06/07 14:54:51;;;;;;;5.95;2.25;;;25.20;60.20;;;;;;5114440;28;20406;-59
2022/06/07 14:57:39;;;;;;;2.95;1.90;;;25.30;60.50;;;;;;5113715;28;20099;-58
2022/06/07 15:00:23;;;;;;;3.05;2.00;;;25.40;60.60;;;;;;5113801;28;20042;-56
2022/06/07 15:03:10;;;;;;;5.80;2.00;;;26.10;59.80;;;;;;5097466;28;20047;-60
2022/06/07 15:05:55;;;;;;;2.90;2.13;;;27.00;58.60;;;;;;5097646;28;20081;-60
2022/06/07 15:08:39;;;;;;;3.47;2.00;;;27.30;57.50;;;;;;5083061;28;20098;-61
2022/06/07 15:11:30;;;;;;;3.33;2.10;;;26.90;58.40;;;;;;5112824;28;20035;-59